sensor_id;sensor_type;location;lat;lon;timestamp;P1;durP1;ratioP1;P2;durP2;ratioP2
42384;SDS011;28042;43.986;22.860;2023-07-20T00:00:27;8.73;;;3.00;;
42384;SDS011;28042;43.986;22.860;2023-07-20T00:02:52;9.43;;;3.35;;
42384;SDS011;28042;43.986;22.860;2023-07-20T00:05:34;8.68;;;2.78;;
42384;SDS011;28042;43.986;22.860;2023-07-20T00:08:00;8.73;;;2.85;;
42384;SDS011;28042;43.986;22.860;2023-07-20T00:10:25;5.50;;;2.67;;
42384;SDS011;28042;43.986;22.860;2023-07-20T00:12:51;9.93;;;2.70;;
42384;SDS011;28042;43.986;22.860;2023-07-20T00:15:16;7.32;;;2.67;;
42384;SDS011;28042;43.986;22.860;2023-07-20T00:17:42;9.10;;;3.28;;
42384;SDS011;28042;43.986;22.860;2023-07-20T00:20:09;12.23;;;2.97;;
42384;SDS011;28042;43.986;22.860;2023-07-20T00:22:36;8.27;;;2.97;;
42384;SDS011;28042;43.986;22.860;2023-07-20T00:25:02;9.05;;;2.47;;
42384;SDS011;28042;43.986;22.860;2023-07-20T00:27:27;8.40;;;2.78;;
42384;SDS011;28042;43.986;22.860;2023-07-20T00:29:53;7.82;;;3.17;;
42384;SDS011;28042;43.986;22.860;2023-07-20T00:32:18;10.95;;;2.95;;
42384;SDS011;28042;43.986;22.860;2023-07-20T00:34:44;7.03;;;2.95;;
42384;SDS011;28042;43.986;22.860;2023-07-20T00:37:09;5.60;;;2.22;;
42384;SDS011;28042;43.986;22.860;2023-07-20T00:39:35;6.75;;;2.63;;
42384;SDS011;28042;43.986;22.860;2023-07-20T00:42:00;10.05;;;3.42;;
42384;SDS011;28042;43.986;22.860;2023-07-20T00:44:26;6.63;;;2.70;;
42384;SDS011;28042;43.986;22.860;2023-07-20T00:46:51;6.70;;;2.50;;
42384;SDS011;28042;43.986;22.860;2023-07-20T00:49:17;6.80;;;2.22;;
42384;SDS011;28042;43.986;22.860;2023-07-20T00:51:46;9.90;;;2.83;;
42384;SDS011;28042;43.986;22.860;2023-07-20T00:54:12;10.60;;;3.00;;
42384;SDS011;28042;43.986;22.860;2023-07-20T00:56:38;9.70;;;3.30;;
42384;SDS011;28042;43.986;22.860;2023-07-20T00:59:04;6.53;;;2.78;;
42384;SDS011;28042;43.986;22.860;2023-07-20T01:01:30;7.05;;;2.92;;
42384;SDS011;28042;43.986;22.860;2023-07-20T01:03:55;10.68;;;3.45;;
42384;SDS011;28042;43.986;22.860;2023-07-20T01:09:17;10.63;;;2.42;;
42384;SDS011;28042;43.986;22.860;2023-07-20T01:11:57;6.95;;;2.28;;
42384;SDS011;28042;43.986;22.860;2023-07-20T01:14:23;9.13;;;2.50;;
42384;SDS011;28042;43.986;22.860;2023-07-20T01:16:50;6.88;;;2.80;;
42384;SDS011;28042;43.986;22.860;2023-07-20T01:19:17;9.95;;;2.67;;
42384;SDS011;28042;43.986;22.860;2023-07-20T01:21:51;4.60;;;2.28;;
42384;SDS011;28042;43.986;22.860;2023-07-20T01:24:38;9.85;;;2.67;;
42384;SDS011;28042;43.986;22.860;2023-07-20T01:27:35;6.70;;;2.53;;
42384;SDS011;28042;43.986;22.860;2023-07-20T01:33:09;9.05;;;2.78;;
42384;SDS011;28042;43.986;22.860;2023-07-20T01:35:38;9.82;;;2.63;;
42384;SDS011;28042;43.986;22.860;2023-07-20T01:38:06;8.73;;;2.50;;
42384;SDS011;28042;43.986;22.860;2023-07-20T01:40:33;8.35;;;2.53;;
42384;SDS011;28042;43.986;22.860;2023-07-20T01:43:00;7.57;;;2.75;;
42384;SDS011;28042;43.986;22.860;2023-07-20T01:45:25;6.40;;;2.40;;
42384;SDS011;28042;43.986;22.860;2023-07-20T01:47:51;5.82;;;2.90;;
42384;SDS011;28042;43.986;22.860;2023-07-20T01:50:17;10.45;;;2.97;;
42384;SDS011;28042;43.986;22.860;2023-07-20T01:52:42;7.35;;;2.70;;
42384;SDS011;28042;43.986;22.860;2023-07-20T01:55:08;12.18;;;2.58;;
42384;SDS011;28042;43.986;22.860;2023-07-20T01:57:35;5.85;;;2.58;;
42384;SDS011;28042;43.986;22.860;2023-07-20T02:00:01;8.13;;;2.72;;
42384;SDS011;28042;43.986;22.860;2023-07-20T02:02:27;6.13;;;2.50;;
42384;SDS011;28042;43.986;22.860;2023-07-20T02:04:53;8.30;;;3.30;;
42384;SDS011;28042;43.986;22.860;2023-07-20T02:07:18;6.90;;;2.42;;
42384;SDS011;28042;43.986;22.860;2023-07-20T02:09:44;10.77;;;2.95;;
42384;SDS011;28042;43.986;22.860;2023-07-20T02:12:09;9.50;;;2.65;;
42384;SDS011;28042;43.986;22.860;2023-07-20T02:14:35;8.15;;;2.60;;
42384;SDS011;28042;43.986;22.860;2023-07-20T02:17:00;8.25;;;2.22;;
42384;SDS011;28042;43.986;22.860;2023-07-20T02:19:26;8.07;;;2.88;;
42384;SDS011;28042;43.986;22.860;2023-07-20T02:21:52;11.43;;;2.80;;
42384;SDS011;28042;43.986;22.860;2023-07-20T02:24:17;9.15;;;3.05;;
42384;SDS011;28042;43.986;22.860;2023-07-20T02:26:43;8.40;;;2.50;;
42384;SDS011;28042;43.986;22.860;2023-07-20T02:29:09;10.70;;;2.75;;
42384;SDS011;28042;43.986;22.860;2023-07-20T02:34:02;7.15;;;2.92;;
42384;SDS011;28042;43.986;22.860;2023-07-20T02:36:28;7.55;;;2.83;;
42384;SDS011;28042;43.986;22.860;2023-07-20T02:38:53;9.10;;;2.50;;
42384;SDS011;28042;43.986;22.860;2023-07-20T02:41:19;6.63;;;2.58;;
42384;SDS011;28042;43.986;22.860;2023-07-20T02:43:45;6.35;;;2.58;;
42384;SDS011;28042;43.986;22.860;2023-07-20T02:46:10;6.15;;;2.55;;
42384;SDS011;28042;43.986;22.860;2023-07-20T02:48:36;8.20;;;2.60;;
42384;SDS011;28042;43.986;22.860;2023-07-20T02:51:02;6.72;;;2.40;;
42384;SDS011;28042;43.986;22.860;2023-07-20T02:53:27;7.65;;;2.90;;
42384;SDS011;28042;43.986;22.860;2023-07-20T02:55:53;5.32;;;2.58;;
42384;SDS011;28042;43.986;22.860;2023-07-20T02:58:18;7.15;;;2.60;;
42384;SDS011;28042;43.986;22.860;2023-07-20T03:00:44;8.90;;;2.63;;
42384;SDS011;28042;43.986;22.860;2023-07-20T03:03:09;7.65;;;2.90;;
42384;SDS011;28042;43.986;22.860;2023-07-20T03:05:35;9.38;;;3.15;;
42384;SDS011;28042;43.986;22.860;2023-07-20T03:08:03;8.40;;;2.80;;
42384;SDS011;28042;43.986;22.860;2023-07-20T03:10:31;11.13;;;3.55;;
42384;SDS011;28042;43.986;22.860;2023-07-20T03:12:57;15.35;;;3.22;;
42384;SDS011;28042;43.986;22.860;2023-07-20T03:15:23;16.40;;;4.20;;
42384;SDS011;28042;43.986;22.860;2023-07-20T03:17:48;6.07;;;2.83;;
42384;SDS011;28042;43.986;22.860;2023-07-20T03:20:13;11.23;;;3.38;;
42384;SDS011;28042;43.986;22.860;2023-07-20T03:22:39;9.70;;;3.17;;
42384;SDS011;28042;43.986;22.860;2023-07-20T03:25:05;11.70;;;3.78;;
42384;SDS011;28042;43.986;22.860;2023-07-20T03:27:30;7.43;;;3.25;;
42384;SDS011;28042;43.986;22.860;2023-07-20T03:29:56;8.07;;;3.15;;
42384;SDS011;28042;43.986;22.860;2023-07-20T03:32:21;12.30;;;3.50;;
42384;SDS011;28042;43.986;22.860;2023-07-20T03:34:47;7.68;;;2.65;;
42384;SDS011;28042;43.986;22.860;2023-07-20T03:37:13;11.15;;;3.20;;
42384;SDS011;28042;43.986;22.860;2023-07-20T03:39:38;10.82;;;3.40;;
42384;SDS011;28042;43.986;22.860;2023-07-20T03:42:04;9.25;;;3.03;;
42384;SDS011;28042;43.986;22.860;2023-07-20T03:44:30;10.35;;;3.08;;
42384;SDS011;28042;43.986;22.860;2023-07-20T03:46:55;9.98;;;2.65;;
42384;SDS011;28042;43.986;22.860;2023-07-20T03:49:21;6.28;;;2.55;;
42384;SDS011;28042;43.986;22.860;2023-07-20T03:51:46;12.15;;;3.33;;
42384;SDS011;28042;43.986;22.860;2023-07-20T03:54:12;10.13;;;2.90;;
42384;SDS011;28042;43.986;22.860;2023-07-20T03:56:37;9.23;;;2.85;;
42384;SDS011;28042;43.986;22.860;2023-07-20T03:59:03;7.18;;;2.60;;
42384;SDS011;28042;43.986;22.860;2023-07-20T04:01:28;9.65;;;2.90;;
42384;SDS011;28042;43.986;22.860;2023-07-20T04:03:54;11.27;;;2.60;;
42384;SDS011;28042;43.986;22.860;2023-07-20T04:06:19;12.65;;;3.22;;
42384;SDS011;28042;43.986;22.860;2023-07-20T04:08:45;8.95;;;2.88;;
42384;SDS011;28042;43.986;22.860;2023-07-20T04:11:12;8.07;;;3.45;;
42384;SDS011;28042;43.986;22.860;2023-07-20T04:13:37;7.72;;;3.00;;
42384;SDS011;28042;43.986;22.860;2023-07-20T04:16:03;10.77;;;2.78;;
42384;SDS011;28042;43.986;22.860;2023-07-20T04:18:29;9.40;;;3.22;;
42384;SDS011;28042;43.986;22.860;2023-07-20T04:20:54;9.85;;;2.95;;
42384;SDS011;28042;43.986;22.860;2023-07-20T04:23:19;8.38;;;3.20;;
42384;SDS011;28042;43.986;22.860;2023-07-20T04:25:45;6.68;;;2.72;;
42384;SDS011;28042;43.986;22.860;2023-07-20T04:28:11;7.18;;;2.70;;
42384;SDS011;28042;43.986;22.860;2023-07-20T04:30:36;7.75;;;2.70;;
42384;SDS011;28042;43.986;22.860;2023-07-20T04:33:03;9.05;;;3.22;;
42384;SDS011;28042;43.986;22.860;2023-07-20T04:38:13;8.77;;;3.08;;
42384;SDS011;28042;43.986;22.860;2023-07-20T04:40:45;9.27;;;3.03;;
42384;SDS011;28042;43.986;22.860;2023-07-20T04:43:16;9.75;;;3.40;;
42384;SDS011;28042;43.986;22.860;2023-07-20T04:45:44;6.50;;;2.85;;
42384;SDS011;28042;43.986;22.860;2023-07-20T04:48:11;8.18;;;2.63;;
42384;SDS011;28042;43.986;22.860;2023-07-20T04:50:38;9.27;;;3.05;;
42384;SDS011;28042;43.986;22.860;2023-07-20T04:53:05;9.45;;;3.00;;
42384;SDS011;28042;43.986;22.860;2023-07-20T04:55:30;8.05;;;2.92;;
42384;SDS011;28042;43.986;22.860;2023-07-20T04:57:58;14.48;;;3.35;;
42384;SDS011;28042;43.986;22.860;2023-07-20T05:00:25;9.53;;;3.20;;
42384;SDS011;28042;43.986;22.860;2023-07-20T05:02:50;8.10;;;2.85;;
42384;SDS011;28042;43.986;22.860;2023-07-20T05:05:16;16.00;;;3.20;;
42384;SDS011;28042;43.986;22.860;2023-07-20T05:07:41;7.28;;;3.17;;
42384;SDS011;28042;43.986;22.860;2023-07-20T05:10:07;10.10;;;3.00;;
42384;SDS011;28042;43.986;22.860;2023-07-20T05:12:33;10.00;;;3.42;;
42384;SDS011;28042;43.986;22.860;2023-07-20T05:14:58;13.00;;;3.42;;
42384;SDS011;28042;43.986;22.860;2023-07-20T05:17:24;8.82;;;2.45;;
42384;SDS011;28042;43.986;22.860;2023-07-20T05:19:50;11.90;;;3.33;;
42384;SDS011;28042;43.986;22.860;2023-07-20T05:22:16;9.48;;;2.70;;
42384;SDS011;28042;43.986;22.860;2023-07-20T05:24:42;7.32;;;3.13;;
42384;SDS011;28042;43.986;22.860;2023-07-20T05:27:08;8.75;;;3.50;;
42384;SDS011;28042;43.986;22.860;2023-07-20T05:29:33;11.52;;;2.92;;
42384;SDS011;28042;43.986;22.860;2023-07-20T05:31:59;12.10;;;3.58;;
42384;SDS011;28042;43.986;22.860;2023-07-20T05:34:24;9.63;;;2.40;;
42384;SDS011;28042;43.986;22.860;2023-07-20T05:36:49;11.30;;;2.83;;
42384;SDS011;28042;43.986;22.860;2023-07-20T05:39:18;11.15;;;3.40;;
42384;SDS011;28042;43.986;22.860;2023-07-20T05:41:43;10.05;;;3.60;;
42384;SDS011;28042;43.986;22.860;2023-07-20T05:44:09;10.07;;;4.55;;
42384;SDS011;28042;43.986;22.860;2023-07-20T05:46:34;10.57;;;4.30;;
42384;SDS011;28042;43.986;22.860;2023-07-20T05:49:00;12.35;;;5.28;;
42384;SDS011;28042;43.986;22.860;2023-07-20T05:51:26;12.77;;;3.90;;
42384;SDS011;28042;43.986;22.860;2023-07-20T05:53:52;14.95;;;3.88;;
42384;SDS011;28042;43.986;22.860;2023-07-20T05:56:17;10.70;;;3.63;;
42384;SDS011;28042;43.986;22.860;2023-07-20T05:58:43;14.27;;;4.07;;
42384;SDS011;28042;43.986;22.860;2023-07-20T06:01:08;15.55;;;5.57;;
42384;SDS011;28042;43.986;22.860;2023-07-20T06:03:34;11.02;;;4.88;;
42384;SDS011;28042;43.986;22.860;2023-07-20T06:06:00;12.27;;;3.95;;
42384;SDS011;28042;43.986;22.860;2023-07-20T06:08:30;14.90;;;4.32;;
42384;SDS011;28042;43.986;22.860;2023-07-20T06:10:56;7.90;;;3.05;;
42384;SDS011;28042;43.986;22.860;2023-07-20T06:13:22;9.93;;;3.10;;
42384;SDS011;28042;43.986;22.860;2023-07-20T06:15:48;9.48;;;3.13;;
42384;SDS011;28042;43.986;22.860;2023-07-20T06:18:14;10.50;;;3.60;;
42384;SDS011;28042;43.986;22.860;2023-07-20T06:20:40;10.85;;;3.80;;
42384;SDS011;28042;43.986;22.860;2023-07-20T06:23:05;9.48;;;3.22;;
42384;SDS011;28042;43.986;22.860;2023-07-20T06:25:31;12.90;;;3.40;;
42384;SDS011;28042;43.986;22.860;2023-07-20T06:27:56;11.65;;;3.58;;
42384;SDS011;28042;43.986;22.860;2023-07-20T06:30:22;6.65;;;2.53;;
42384;SDS011;28042;43.986;22.860;2023-07-20T06:32:47;8.13;;;2.42;;
42384;SDS011;28042;43.986;22.860;2023-07-20T06:35:13;6.97;;;2.58;;
42384;SDS011;28042;43.986;22.860;2023-07-20T06:37:40;9.68;;;2.22;;
42384;SDS011;28042;43.986;22.860;2023-07-20T06:40:06;5.10;;;2.33;;
42384;SDS011;28042;43.986;22.860;2023-07-20T06:42:34;15.95;;;3.15;;
42384;SDS011;28042;43.986;22.860;2023-07-20T06:44:59;10.23;;;2.10;;
42384;SDS011;28042;43.986;22.860;2023-07-20T06:47:25;7.75;;;2.58;;
42384;SDS011;28042;43.986;22.860;2023-07-20T06:49:50;5.20;;;1.92;;
42384;SDS011;28042;43.986;22.860;2023-07-20T06:52:16;13.23;;;2.70;;
42384;SDS011;28042;43.986;22.860;2023-07-20T06:54:41;6.95;;;2.35;;
42384;SDS011;28042;43.986;22.860;2023-07-20T06:57:07;11.57;;;3.13;;
42384;SDS011;28042;43.986;22.860;2023-07-20T06:59:32;6.18;;;2.53;;
42384;SDS011;28042;43.986;22.860;2023-07-20T07:01:57;8.50;;;2.25;;
42384;SDS011;28042;43.986;22.860;2023-07-20T07:04:23;6.70;;;2.15;;
42384;SDS011;28042;43.986;22.860;2023-07-20T07:06:48;8.27;;;2.80;;
42384;SDS011;28042;43.986;22.860;2023-07-20T07:09:14;7.80;;;2.75;;
42384;SDS011;28042;43.986;22.860;2023-07-20T07:11:39;9.38;;;2.67;;
42384;SDS011;28042;43.986;22.860;2023-07-20T07:14:05;8.18;;;2.55;;
42384;SDS011;28042;43.986;22.860;2023-07-20T07:16:30;9.05;;;2.67;;
42384;SDS011;28042;43.986;22.860;2023-07-20T07:18:56;6.40;;;2.50;;
42384;SDS011;28042;43.986;22.860;2023-07-20T07:21:21;10.43;;;3.08;;
42384;SDS011;28042;43.986;22.860;2023-07-20T07:23:47;11.70;;;2.75;;
42384;SDS011;28042;43.986;22.860;2023-07-20T07:26:13;9.00;;;2.88;;
42384;SDS011;28042;43.986;22.860;2023-07-20T07:28:38;7.28;;;2.70;;
42384;SDS011;28042;43.986;22.860;2023-07-20T07:31:04;11.02;;;2.72;;
42384;SDS011;28042;43.986;22.860;2023-07-20T07:33:30;8.33;;;3.00;;
42384;SDS011;28042;43.986;22.860;2023-07-20T07:35:56;10.30;;;4.07;;
42384;SDS011;28042;43.986;22.860;2023-07-20T07:38:22;14.23;;;3.92;;
42384;SDS011;28042;43.986;22.860;2023-07-20T07:40:47;9.45;;;3.20;;
42384;SDS011;28042;43.986;22.860;2023-07-20T07:43:13;12.68;;;3.85;;
42384;SDS011;28042;43.986;22.860;2023-07-20T07:45:39;11.27;;;4.28;;
42384;SDS011;28042;43.986;22.860;2023-07-20T07:48:05;8.90;;;4.35;;
42384;SDS011;28042;43.986;22.860;2023-07-20T07:50:31;10.80;;;3.72;;
42384;SDS011;28042;43.986;22.860;2023-07-20T07:52:58;15.27;;;4.10;;
42384;SDS011;28042;43.986;22.860;2023-07-20T07:55:24;11.57;;;3.70;;
42384;SDS011;28042;43.986;22.860;2023-07-20T07:57:51;9.70;;;4.20;;
42384;SDS011;28042;43.986;22.860;2023-07-20T08:00:17;12.48;;;4.25;;
42384;SDS011;28042;43.986;22.860;2023-07-20T08:02:44;11.90;;;3.80;;
42384;SDS011;28042;43.986;22.860;2023-07-20T08:05:10;9.40;;;3.53;;
42384;SDS011;28042;43.986;22.860;2023-07-20T08:07:38;12.07;;;3.95;;
42384;SDS011;28042;43.986;22.860;2023-07-20T08:10:04;11.07;;;3.25;;
42384;SDS011;28042;43.986;22.860;2023-07-20T08:12:30;8.10;;;3.40;;
42384;SDS011;28042;43.986;22.860;2023-07-20T08:14:56;12.55;;;4.07;;
42384;SDS011;28042;43.986;22.860;2023-07-20T08:17:21;8.60;;;3.78;;
42384;SDS011;28042;43.986;22.860;2023-07-20T08:19:47;9.55;;;3.45;;
42384;SDS011;28042;43.986;22.860;2023-07-20T08:22:12;10.00;;;3.15;;
42384;SDS011;28042;43.986;22.860;2023-07-20T08:24:41;9.38;;;3.63;;
42384;SDS011;28042;43.986;22.860;2023-07-20T08:27:08;17.75;;;3.92;;
42384;SDS011;28042;43.986;22.860;2023-07-20T08:29:34;8.93;;;3.03;;
42384;SDS011;28042;43.986;22.860;2023-07-20T08:32:00;9.32;;;3.88;;
42384;SDS011;28042;43.986;22.860;2023-07-20T08:34:27;11.43;;;3.00;;
42384;SDS011;28042;43.986;22.860;2023-07-20T08:36:52;10.57;;;3.45;;
42384;SDS011;28042;43.986;22.860;2023-07-20T08:39:17;6.72;;;2.80;;
42384;SDS011;28042;43.986;22.860;2023-07-20T08:41:43;10.15;;;3.25;;
42384;SDS011;28042;43.986;22.860;2023-07-20T08:44:09;13.32;;;4.53;;
42384;SDS011;28042;43.986;22.860;2023-07-20T08:46:39;14.23;;;4.30;;
42384;SDS011;28042;43.986;22.860;2023-07-20T08:49:06;11.98;;;4.80;;
42384;SDS011;28042;43.986;22.860;2023-07-20T08:51:33;8.13;;;3.83;;
42384;SDS011;28042;43.986;22.860;2023-07-20T08:54:00;10.50;;;3.90;;
42384;SDS011;28042;43.986;22.860;2023-07-20T08:56:26;9.50;;;4.43;;
42384;SDS011;28042;43.986;22.860;2023-07-20T08:58:53;12.57;;;4.25;;
42384;SDS011;28042;43.986;22.860;2023-07-20T09:01:19;22.02;;;5.07;;
42384;SDS011;28042;43.986;22.860;2023-07-20T09:03:45;10.52;;;4.03;;
42384;SDS011;28042;43.986;22.860;2023-07-20T09:06:12;13.35;;;4.43;;
42384;SDS011;28042;43.986;22.860;2023-07-20T09:08:40;13.98;;;4.78;;
42384;SDS011;28042;43.986;22.860;2023-07-20T09:11:06;9.40;;;4.55;;
42384;SDS011;28042;43.986;22.860;2023-07-20T09:13:33;12.98;;;4.55;;
42384;SDS011;28042;43.986;22.860;2023-07-20T09:15:59;10.23;;;4.18;;
42384;SDS011;28042;43.986;22.860;2023-07-20T09:18:25;8.30;;;3.45;;
42384;SDS011;28042;43.986;22.860;2023-07-20T09:24:15;13.95;;;3.67;;
42384;SDS011;28042;43.986;22.860;2023-07-20T09:26:43;7.90;;;3.42;;
42384;SDS011;28042;43.986;22.860;2023-07-20T09:29:10;10.15;;;3.13;;
42384;SDS011;28042;43.986;22.860;2023-07-20T09:31:36;10.75;;;3.47;;
42384;SDS011;28042;43.986;22.860;2023-07-20T09:34:01;9.50;;;3.33;;
42384;SDS011;28042;43.986;22.860;2023-07-20T09:36:28;9.10;;;3.45;;
42384;SDS011;28042;43.986;22.860;2023-07-20T09:38:54;7.47;;;3.20;;
42384;SDS011;28042;43.986;22.860;2023-07-20T09:41:20;11.00;;;3.50;;
42384;SDS011;28042;43.986;22.860;2023-07-20T09:43:46;6.70;;;3.20;;
42384;SDS011;28042;43.986;22.860;2023-07-20T09:46:12;10.95;;;3.72;;
42384;SDS011;28042;43.986;22.860;2023-07-20T09:48:38;9.93;;;3.75;;
42384;SDS011;28042;43.986;22.860;2023-07-20T09:51:04;8.02;;;3.20;;
42384;SDS011;28042;43.986;22.860;2023-07-20T09:53:32;9.95;;;3.75;;
42384;SDS011;28042;43.986;22.860;2023-07-20T09:55:58;8.57;;;3.87;;
42384;SDS011;28042;43.986;22.860;2023-07-20T09:58:25;13.25;;;5.15;;
42384;SDS011;28042;43.986;22.860;2023-07-20T10:00:52;6.97;;;3.63;;
42384;SDS011;28042;43.986;22.860;2023-07-20T10:03:22;8.60;;;4.07;;
42384;SDS011;28042;43.986;22.860;2023-07-20T10:08:25;14.63;;;4.40;;
42384;SDS011;28042;43.986;22.860;2023-07-20T10:10:53;8.57;;;4.53;;
42384;SDS011;28042;43.986;22.860;2023-07-20T10:13:25;7.70;;;3.97;;
42384;SDS011;28042;43.986;22.860;2023-07-20T10:16:01;14.45;;;4.85;;
42384;SDS011;28042;43.986;22.860;2023-07-20T10:18:47;8.57;;;3.95;;
42384;SDS011;28042;43.986;22.860;2023-07-20T10:21:17;8.98;;;4.65;;
42384;SDS011;28042;43.986;22.860;2023-07-20T10:23:45;8.07;;;3.90;;
42384;SDS011;28042;43.986;22.860;2023-07-20T10:26:10;13.30;;;4.28;;
42384;SDS011;28042;43.986;22.860;2023-07-20T10:28:36;8.80;;;3.78;;
42384;SDS011;28042;43.986;22.860;2023-07-20T10:31:03;11.35;;;3.92;;
42384;SDS011;28042;43.986;22.860;2023-07-20T10:33:29;10.68;;;3.60;;
42384;SDS011;28042;43.986;22.860;2023-07-20T10:38:55;9.68;;;3.20;;
42384;SDS011;28042;43.986;22.860;2023-07-20T10:43:57;9.18;;;3.00;;
42384;SDS011;28042;43.986;22.860;2023-07-20T10:49:05;11.60;;;3.13;;
42384;SDS011;28042;43.986;22.860;2023-07-20T10:51:38;13.77;;;3.50;;
42384;SDS011;28042;43.986;22.860;2023-07-20T10:54:07;9.70;;;3.50;;
42384;SDS011;28042;43.986;22.860;2023-07-20T10:56:33;12.43;;;3.60;;
42384;SDS011;28042;43.986;22.860;2023-07-20T10:58:59;10.15;;;3.15;;
42384;SDS011;28042;43.986;22.860;2023-07-20T11:01:29;9.23;;;3.63;;
42384;SDS011;28042;43.986;22.860;2023-07-20T11:03:58;8.70;;;3.13;;
42384;SDS011;28042;43.986;22.860;2023-07-20T11:11:37;11.40;;;4.03;;
42384;SDS011;28042;43.986;22.860;2023-07-20T11:14:10;10.05;;;3.80;;
42384;SDS011;28042;43.986;22.860;2023-07-20T11:16:45;15.23;;;5.10;;
42384;SDS011;28042;43.986;22.860;2023-07-20T11:21:43;11.35;;;3.95;;
42384;SDS011;28042;43.986;22.860;2023-07-20T11:24:10;17.00;;;4.75;;
42384;SDS011;28042;43.986;22.860;2023-07-20T11:29:17;7.80;;;3.88;;
42384;SDS011;28042;43.986;22.860;2023-07-20T11:31:47;15.02;;;4.50;;
42384;SDS011;28042;43.986;22.860;2023-07-20T11:34:17;7.10;;;4.10;;
42384;SDS011;28042;43.986;22.860;2023-07-20T11:36:44;12.52;;;3.97;;
42384;SDS011;28042;43.986;22.860;2023-07-20T11:39:14;12.07;;;4.50;;
42384;SDS011;28042;43.986;22.860;2023-07-20T11:41:47;14.68;;;4.60;;
42384;SDS011;28042;43.986;22.860;2023-07-20T11:44:12;14.45;;;5.22;;
42384;SDS011;28042;43.986;22.860;2023-07-20T11:46:41;12.10;;;4.63;;
42384;SDS011;28042;43.986;22.860;2023-07-20T11:49:07;11.60;;;4.40;;
42384;SDS011;28042;43.986;22.860;2023-07-20T11:51:33;11.75;;;4.07;;
42384;SDS011;28042;43.986;22.860;2023-07-20T11:54:00;9.80;;;4.03;;
42384;SDS011;28042;43.986;22.860;2023-07-20T11:56:27;11.80;;;4.15;;
42384;SDS011;28042;43.986;22.860;2023-07-20T11:58:59;8.68;;;4.03;;
42384;SDS011;28042;43.986;22.860;2023-07-20T12:01:27;5.82;;;3.22;;
42384;SDS011;28042;43.986;22.860;2023-07-20T12:04:01;22.38;;;4.20;;
42384;SDS011;28042;43.986;22.860;2023-07-20T12:06:28;7.60;;;4.10;;
42384;SDS011;28042;43.986;22.860;2023-07-20T12:08:56;12.10;;;3.45;;
42384;SDS011;28042;43.986;22.860;2023-07-20T12:11:35;8.68;;;3.95;;
42384;SDS011;28042;43.986;22.860;2023-07-20T12:14:03;11.93;;;4.10;;
42384;SDS011;28042;43.986;22.860;2023-07-20T12:16:32;10.70;;;3.83;;
42384;SDS011;28042;43.986;22.860;2023-07-20T12:19:05;6.90;;;3.33;;
42384;SDS011;28042;43.986;22.860;2023-07-20T12:21:33;13.05;;;3.38;;
42384;SDS011;28042;43.986;22.860;2023-07-20T12:24:02;7.75;;;3.00;;
42384;SDS011;28042;43.986;22.860;2023-07-20T12:26:29;7.70;;;3.00;;
42384;SDS011;28042;43.986;22.860;2023-07-20T12:28:55;9.93;;;3.13;;
42384;SDS011;28042;43.986;22.860;2023-07-20T12:31:21;6.50;;;2.78;;
42384;SDS011;28042;43.986;22.860;2023-07-20T12:33:48;8.30;;;3.27;;
42384;SDS011;28042;43.986;22.860;2023-07-20T12:36:13;7.60;;;3.08;;
42384;SDS011;28042;43.986;22.860;2023-07-20T12:38:39;12.00;;;3.72;;
42384;SDS011;28042;43.986;22.860;2023-07-20T12:41:06;7.57;;;3.30;;
42384;SDS011;28042;43.986;22.860;2023-07-20T12:43:32;9.52;;;3.45;;
42384;SDS011;28042;43.986;22.860;2023-07-20T12:45:59;9.68;;;3.20;;
42384;SDS011;28042;43.986;22.860;2023-07-20T12:48:24;6.93;;;3.10;;
42384;SDS011;28042;43.986;22.860;2023-07-20T12:50:50;6.07;;;2.95;;
42384;SDS011;28042;43.986;22.860;2023-07-20T12:53:15;14.30;;;3.00;;
42384;SDS011;28042;43.986;22.860;2023-07-20T12:55:41;15.10;;;3.75;;
42384;SDS011;28042;43.986;22.860;2023-07-20T12:58:07;7.03;;;3.03;;
42384;SDS011;28042;43.986;22.860;2023-07-20T13:00:33;8.23;;;3.23;;
42384;SDS011;28042;43.986;22.860;2023-07-20T13:02:59;11.15;;;3.15;;
42384;SDS011;28042;43.986;22.860;2023-07-20T13:05:24;7.70;;;3.03;;
42384;SDS011;28042;43.986;22.860;2023-07-20T13:07:50;9.63;;;3.03;;
42384;SDS011;28042;43.986;22.860;2023-07-20T13:10:15;8.27;;;2.95;;
42384;SDS011;28042;43.986;22.860;2023-07-20T13:12:41;4.97;;;2.63;;
42384;SDS011;28042;43.986;22.860;2023-07-20T13:15:07;6.90;;;2.70;;
42384;SDS011;28042;43.986;22.860;2023-07-20T13:17:34;6.80;;;2.92;;
42384;SDS011;28042;43.986;22.860;2023-07-20T13:20:00;7.40;;;3.22;;
42384;SDS011;28042;43.986;22.860;2023-07-20T13:22:28;10.07;;;2.95;;
42384;SDS011;28042;43.986;22.860;2023-07-20T13:24:54;8.07;;;3.17;;
42384;SDS011;28042;43.986;22.860;2023-07-20T13:27:21;7.20;;;3.00;;
42384;SDS011;28042;43.986;22.860;2023-07-20T13:32:13;18.50;;;3.65;;
42384;SDS011;28042;43.986;22.860;2023-07-20T13:34:46;9.02;;;3.05;;
42384;SDS011;28042;43.986;22.860;2023-07-20T13:37:12;7.80;;;2.78;;
42384;SDS011;28042;43.986;22.860;2023-07-20T13:39:37;10.73;;;3.45;;
42384;SDS011;28042;43.986;22.860;2023-07-20T13:42:04;7.53;;;3.20;;
42384;SDS011;28042;43.986;22.860;2023-07-20T13:44:32;7.53;;;3.28;;
42384;SDS011;28042;43.986;22.860;2023-07-20T13:46:59;7.18;;;2.88;;
42384;SDS011;28042;43.986;22.860;2023-07-20T13:49:25;8.43;;;3.40;;
42384;SDS011;28042;43.986;22.860;2023-07-20T13:51:50;14.98;;;3.78;;
42384;SDS011;28042;43.986;22.860;2023-07-20T13:54:15;15.70;;;4.18;;
42384;SDS011;28042;43.986;22.860;2023-07-20T13:56:41;9.38;;;3.83;;
42384;SDS011;28042;43.986;22.860;2023-07-20T13:59:07;12.25;;;3.63;;
42384;SDS011;28042;43.986;22.860;2023-07-20T14:01:32;10.18;;;3.58;;
42384;SDS011;28042;43.986;22.860;2023-07-20T14:03:59;8.98;;;3.47;;
42384;SDS011;28042;43.986;22.860;2023-07-20T14:06:25;14.63;;;3.95;;
42384;SDS011;28042;43.986;22.860;2023-07-20T14:08:51;9.50;;;3.20;;
42384;SDS011;28042;43.986;22.860;2023-07-20T14:11:18;13.00;;;3.35;;
42384;SDS011;28042;43.986;22.860;2023-07-20T14:13:43;12.02;;;3.83;;
42384;SDS011;28042;43.986;22.860;2023-07-20T14:16:09;7.75;;;3.28;;
42384;SDS011;28042;43.986;22.860;2023-07-20T14:18:35;19.55;;;4.00;;
42384;SDS011;28042;43.986;22.860;2023-07-20T14:21:00;12.88;;;4.70;;
42384;SDS011;28042;43.986;22.860;2023-07-20T14:23:28;12.73;;;3.80;;
42384;SDS011;28042;43.986;22.860;2023-07-20T14:25:54;10.07;;;3.50;;
42384;SDS011;28042;43.986;22.860;2023-07-20T14:28:20;9.77;;;3.58;;
42384;SDS011;28042;43.986;22.860;2023-07-20T14:30:46;11.63;;;4.97;;
42384;SDS011;28042;43.986;22.860;2023-07-20T14:33:12;9.77;;;3.92;;
42384;SDS011;28042;43.986;22.860;2023-07-20T14:35:37;8.70;;;3.58;;
42384;SDS011;28042;43.986;22.860;2023-07-20T14:38:03;6.78;;;2.83;;
42384;SDS011;28042;43.986;22.860;2023-07-20T14:40:28;14.32;;;4.38;;
42384;SDS011;28042;43.986;22.860;2023-07-20T14:42:55;11.15;;;3.40;;
42384;SDS011;28042;43.986;22.860;2023-07-20T14:45:20;8.32;;;3.38;;
42384;SDS011;28042;43.986;22.860;2023-07-20T14:47:46;7.10;;;3.33;;
42384;SDS011;28042;43.986;22.860;2023-07-20T14:50:14;9.05;;;3.33;;
42384;SDS011;28042;43.986;22.860;2023-07-20T14:52:39;8.73;;;3.80;;
42384;SDS011;28042;43.986;22.860;2023-07-20T14:55:05;8.27;;;3.70;;
42384;SDS011;28042;43.986;22.860;2023-07-20T14:57:30;9.88;;;3.47;;
42384;SDS011;28042;43.986;22.860;2023-07-20T14:59:56;7.47;;;3.50;;
42384;SDS011;28042;43.986;22.860;2023-07-20T15:02:21;10.85;;;4.65;;